Time;durP1;ratioP1;P1;durP2;ratioP2;P2;SDS_P1;SDS_P2;PMS_P1;PMS_P2;Temp;Humidity;BMP_temperature;BMP_pressure;BME280_temperature;BME280_humidity;BME280_pressure;Samples;Min_cycle;Max_cycle;Signal;HPM_P1;HPM_P2
2021/07/20 00:02:07;;;;;;;8.27;5.38;;;;;;;;;;5095525;28;20298;-62
2021/07/20 00:04:35;;;;;;;7.53;4.97;;;;;;;;;;5095328;28;20237;-61
2021/07/20 00:07:05;;;;;;;8.32;5.97;;;;;;;;;;5095100;28;20228;-62
2021/07/20 00:09:34;;;;;;;7.82;5.40;;;;;;;;;;5095179;28;20578;-61
2021/07/20 00:12:02;;;;;;;6.90;5.03;;;;;;;;;;5095304;28;20196;-62
2021/07/20 00:14:31;;;;;;;7.22;5.13;;;;;;;;;;5095135;28;20283;-62
2021/07/20 00:16:59;;;;;;;8.18;5.63;;;;;;;;;;5095152;28;20227;-62
2021/07/20 00:19:27;;;;;;;9.68;5.70;;;;;;;;;;5074867;28;20280;-62
2021/07/20 00:21:55;;;;;;;11.05;5.40;;;;;;;;;;5074762;28;20201;-63
2021/07/20 00:24:25;;;;;;;7.43;4.95;;;;;;;;;;5075133;28;20236;-61
2021/07/20 00:26:53;;;;;;;7.65;4.95;;;;;;;;;;5074843;28;20291;-62
2021/07/20 00:29:21;;;;;;;7.50;5.35;;;;;;;;;;5074524;28;20238;-62
2021/07/20 00:31:49;;;;;;;6.70;5.20;;;;;;;;;;5074359;28;20300;-62
2021/07/20 00:34:17;;;;;;;7.70;5.18;;;;;;;;;;5074391;28;20214;-62
2021/07/20 00:36:45;;;;;;;8.10;5.70;;;;;;;;;;5078557;28;20196;-61
2021/07/20 00:39:13;;;;;;;9.75;5.70;;;;;;;;;;5094818;28;20202;-62
2021/07/20 00:41:43;;;;;;;7.00;5.43;;;;;;;;;;5094435;28;20752;-61
2021/07/20 00:44:11;;;;;;;7.07;5.78;;;;;;;;;;5094779;28;20209;-62
2021/07/20 00:46:39;;;;;;;8.75;5.55;;;;;;;;;;5094623;28;20222;-62
2021/07/20 00:49:08;;;;;;;7.35;5.80;;;;;;;;;;5094693;28;20220;-62
2021/07/20 00:51:36;;;;;;;7.10;5.82;;;;;;;;;;5094090;28;20228;-62
2021/07/20 00:54:04;;;;;;;10.95;6.63;;;;;;;;;;5094199;28;20690;-62
2021/07/20 00:56:33;;;;;;;7.38;5.63;;;;;;;;;;5094322;28;20207;-62
2021/07/20 00:59:02;;;;;;;9.80;6.03;;;;;;;;;;5094230;28;20196;-62
2021/07/20 01:01:31;;;;;;;9.45;5.90;;;;;;;;;;5094457;28;20204;-61
2021/07/20 01:03:59;;;;;;;9.55;6.88;;;;;;;;;;5094351;28;20200;-62
2021/07/20 01:06:27;;;;;;;9.82;6.28;;;;;;;;;;5094067;28;20554;-62
2021/07/20 01:08:56;;;;;;;7.35;5.60;;;;;;;;;;5094032;28;20226;-62
2021/07/20 01:11:26;;;;;;;7.47;5.63;;;;;;;;;;5094232;28;20206;-61
2021/07/20 01:13:55;;;;;;;11.38;6.57;;;;;;;;;;5094300;28;20506;-62
2021/07/20 01:16:25;;;;;;;9.02;6.28;;;;;;;;;;5094113;28;20296;-62
2021/07/20 01:18:53;;;;;;;8.45;6.20;;;;;;;;;;5093950;28;20253;-63
2021/07/20 01:21:22;;;;;;;9.55;5.88;;;;;;;;;;5093886;28;20218;-62
2021/07/20 01:23:52;;;;;;;10.35;6.15;;;;;;;;;;5093408;28;20231;-61
2021/07/20 01:26:21;;;;;;;8.35;6.28;;;;;;;;;;5093583;28;20555;-61
2021/07/20 01:28:49;;;;;;;9.40;6.13;;;;;;;;;;5093737;28;20215;-61
2021/07/20 01:31:19;;;;;;;10.60;6.75;;;;;;;;;;5093851;28;20291;-62
2021/07/20 01:33:49;;;;;;;8.85;6.65;;;;;;;;;;5093816;28;20204;-62
2021/07/20 01:36:18;;;;;;;6.50;5.82;;;;;;;;;;5093823;28;20278;-62
2021/07/20 01:38:47;;;;;;;7.97;6.05;;;;;;;;;;5094978;28;20305;-61
2021/07/20 01:41:17;;;;;;;9.00;6.18;;;;;;;;;;5095718;28;20292;-61
2021/07/20 01:43:46;;;;;;;9.15;6.40;;;;;;;;;;5094856;28;20206;-62
2021/07/20 01:46:16;;;;;;;9.88;6.55;;;;;;;;;;5095129;28;20295;-61
2021/07/20 01:48:50;;;;;;;9.38;6.57;;;;;;;;;;5093957;28;20216;-62
2021/07/20 01:51:19;;;;;;;8.90;6.57;;;;;;;;;;5093066;28;20231;-61
2021/07/20 01:53:47;;;;;;;9.10;6.55;;;;;;;;;;5093224;28;20670;-62
2021/07/20 01:56:17;;;;;;;7.97;6.43;;;;;;;;;;5093151;28;20324;-61
2021/07/20 01:58:45;;;;;;;8.10;6.15;;;;;;;;;;5093118;28;20202;-61
2021/07/20 02:01:14;;;;;;;9.95;6.45;;;;;;;;;;5093025;28;20204;-62
2021/07/20 02:03:59;;;;;;;9.65;6.15;;;;;;;;;;5093266;28;20551;-61
2021/07/20 02:09:15;;;;;;;10.95;6.95;;;;;;;;;;5093088;28;20211;-61
2021/07/20 02:11:45;;;;;;;8.75;6.55;;;;;;;;;;5093082;28;20200;-62
2021/07/20 02:14:15;;;;;;;14.20;7.25;;;;;;;;;;5092981;28;20220;-61
2021/07/20 02:16:45;;;;;;;8.73;6.47;;;;;;;;;;5092940;28;20206;-62
2021/07/20 02:19:15;;;;;;;11.75;6.68;;;;;;;;;;5092961;28;20243;-62
2021/07/20 02:21:45;;;;;;;9.32;6.70;;;;;;;;;;5092935;28;20200;-62
2021/07/20 02:24:14;;;;;;;9.40;6.78;;;;;;;;;;5092709;28;20624;-62
2021/07/20 02:26:44;;;;;;;8.23;6.97;;;;;;;;;;5092660;28;20200;-61
2021/07/20 02:29:13;;;;;;;9.35;6.70;;;;;;;;;;5083369;28;20211;-62
2021/07/20 02:31:41;;;;;;;8.10;6.53;;;;;;;;;;5077508;28;20316;-61
2021/07/20 02:34:10;;;;;;;8.80;6.35;;;;;;;;;;5071845;28;20231;-62
2021/07/20 02:36:39;;;;;;;8.57;6.25;;;;;;;;;;5075658;28;20196;-62
2021/07/20 02:39:09;;;;;;;8.82;6.60;;;;;;;;;;5092882;28;20198;-62
2021/07/20 02:41:38;;;;;;;8.45;6.50;;;;;;;;;;5092832;28;20202;-62
2021/07/20 02:44:07;;;;;;;10.73;6.38;;;;;;;;;;5092574;28;20200;-62
2021/07/20 02:46:37;;;;;;;9.90;6.78;;;;;;;;;;5092733;28;20280;-61
2021/07/20 02:49:05;;;;;;;10.02;6.90;;;;;;;;;;5092693;28;20311;-61
2021/07/20 02:51:35;;;;;;;11.35;6.90;;;;;;;;;;5092501;28;20627;-63
2021/07/20 02:54:03;;;;;;;9.95;6.45;;;;;;;;;;5092714;28;20299;-62
2021/07/20 02:56:32;;;;;;;8.88;6.53;;;;;;;;;;5092603;28;20295;-61
2021/07/20 02:59:01;;;;;;;9.70;6.55;;;;;;;;;;5092258;28;20206;-62
2021/07/20 03:01:33;;;;;;;9.68;6.90;;;;;;;;;;5092627;28;20200;-62
2021/07/20 03:04:01;;;;;;;9.77;6.55;;;;;;;;;;5092786;28;20207;-62
2021/07/20 03:06:30;;;;;;;9.15;6.55;;;;;;;;;;5092729;28;20207;-62
2021/07/20 03:08:59;;;;;;;9.80;6.38;;;;;;;;;;5092467;28;20228;-61
2021/07/20 03:11:29;;;;;;;9.15;6.90;;;;;;;;;;5092782;28;20292;-62
2021/07/20 03:14:01;;;;;;;7.97;6.68;;;;;;;;;;5092296;28;20532;-61
2021/07/20 03:16:29;;;;;;;8.82;6.07;;;;;;;;;;5092483;28;20184;-63
2021/07/20 03:18:59;;;;;;;9.07;6.90;;;;;;;;;;5092056;28;20204;-62
2021/07/20 03:21:28;;;;;;;6.78;5.88;;;;;;;;;;5092486;28;20207;-61
2021/07/20 03:23:56;;;;;;;7.07;5.82;;;;;;;;;;5092171;28;20635;-62
2021/07/20 03:26:26;;;;;;;8.70;6.80;;;;;;;;;;5092289;28;20196;-63
2021/07/20 03:28:55;;;;;;;9.35;6.40;;;;;;;;;;5091816;28;20243;-61
2021/07/20 03:31:23;;;;;;;10.13;6.75;;;;;;;;;;5092350;28;20222;-62
2021/07/20 03:33:52;;;;;;;9.68;6.53;;;;;;;;;;5092283;28;20196;-61
2021/07/20 03:36:22;;;;;;;9.25;6.20;;;;;;;;;;5091846;28;20227;-63
2021/07/20 03:38:50;;;;;;;8.38;6.40;;;;;;;;;;5071757;28;20563;-61
2021/07/20 03:41:19;;;;;;;9.02;6.45;;;;;;;;;;5072092;28;20211;-62
2021/07/20 03:43:47;;;;;;;10.13;6.43;;;;;;;;;;5071724;28;20200;-64
2021/07/20 03:46:16;;;;;;;7.60;6.25;;;;;;;;;;5073920;28;20207;-62
2021/07/20 03:48:44;;;;;;;9.98;6.25;;;;;;;;;;5075231;28;20566;-63
2021/07/20 03:51:13;;;;;;;9.20;6.15;;;;;;;;;;5081983;28;20319;-62
2021/07/20 03:53:43;;;;;;;10.60;6.25;;;;;;;;;;5095392;28;20685;-61
2021/07/20 03:56:12;;;;;;;7.18;6.18;;;;;;;;;;5095700;28;20181;-62
2021/07/20 03:58:40;;;;;;;9.30;6.20;;;;;;;;;;5094919;28;20685;-62
2021/07/20 04:01:09;;;;;;;9.73;6.50;;;;;;;;;;5095565;28;20214;-62
2021/07/20 04:03:39;;;;;;;9.68;6.80;;;;;;;;;;5095073;28;20204;-62
2021/07/20 04:06:09;;;;;;;11.98;7.05;;;;;;;;;;5095275;28;20211;-62
2021/07/20 04:08:38;;;;;;;9.02;6.60;;;;;;;;;;5095076;28;20204;-62
2021/07/20 04:11:08;;;;;;;9.00;6.70;;;;;;;;;;5095245;28;20216;-62
2021/07/20 04:13:36;;;;;;;7.68;6.35;;;;;;;;;;5095259;28;20560;-62
2021/07/20 04:16:07;;;;;;;8.38;6.28;;;;;;;;;;5095207;28;20200;-62
2021/07/20 04:18:36;;;;;;;10.18;7.20;;;;;;;;;;5094972;28;20637;-62
2021/07/20 04:21:05;;;;;;;8.30;6.90;;;;;;;;;;5094846;28;20208;-62
2021/07/20 04:23:34;;;;;;;8.15;6.82;;;;;;;;;;5095260;28;20299;-61
2021/07/20 04:26:03;;;;;;;9.02;5.88;;;;;;;;;;5095032;28;20298;-63
2021/07/20 04:28:32;;;;;;;9.40;6.35;;;;;;;;;;5094667;28;20227;-62
2021/07/20 04:31:01;;;;;;;7.85;6.18;;;;;;;;;;5094614;28;20262;-62
2021/07/20 04:33:31;;;;;;;9.77;6.50;;;;;;;;;;5094657;28;20758;-61
2021/07/20 04:35:59;;;;;;;9.48;6.30;;;;;;;;;;5094997;28;20204;-62
2021/07/20 04:38:29;;;;;;;9.75;6.35;;;;;;;;;;5094788;28;20202;-62
2021/07/20 04:40:58;;;;;;;10.45;6.72;;;;;;;;;;5094438;28;20204;-62
2021/07/20 04:43:26;;;;;;;8.18;7.13;;;;;;;;;;5094181;28;20295;-61
2021/07/20 04:45:57;;;;;;;8.07;6.10;;;;;;;;;;5094657;28;20199;-62
2021/07/20 04:48:26;;;;;;;9.48;6.25;;;;;;;;;;5094662;28;20184;-62
2021/07/20 04:50:55;;;;;;;8.77;6.40;;;;;;;;;;5094030;28;20224;-62
2021/07/20 04:53:23;;;;;;;7.60;5.90;;;;;;;;;;5094156;28;20216;-60
2021/07/20 04:55:52;;;;;;;10.20;6.20;;;;;;;;;;5094053;28;20204;-63
2021/07/20 04:58:21;;;;;;;8.00;6.10;;;;;;;;;;5093230;28;20283;-64
2021/07/20 05:00:51;;;;;;;8.68;6.10;;;;;;;;;;5094285;28;20292;-62
2021/07/20 05:03:22;;;;;;;9.02;5.90;;;;;;;;;;5093993;28;20191;-63
2021/07/20 05:05:50;;;;;;;8.60;6.50;;;;;;;;;;5094253;28;20271;-62
2021/07/20 05:08:20;;;;;;;9.82;6.43;;;;;;;;;;5093943;28;20219;-62
2021/07/20 05:10:49;;;;;;;7.07;5.65;;;;;;;;;;5093971;28;20215;-63
2021/07/20 05:13:17;;;;;;;11.23;6.20;;;;;;;;;;5093391;28;20290;-62
2021/07/20 05:15:47;;;;;;;9.63;6.50;;;;;;;;;;5094026;28;20620;-63
2021/07/20 05:18:15;;;;;;;8.45;6.18;;;;;;;;;;5093567;28;20208;-62
2021/07/20 05:20:45;;;;;;;8.48;6.20;;;;;;;;;;5093832;28;20196;-62
2021/07/20 05:23:14;;;;;;;9.00;5.60;;;;;;;;;;5093585;28;20294;-62
2021/07/20 05:25:43;;;;;;;9.48;5.30;;;;;;;;;;5093791;28;20242;-63
2021/07/20 05:28:12;;;;;;;8.88;6.00;;;;;;;;;;5093337;28;20204;-62
2021/07/20 05:30:40;;;;;;;9.05;6.30;;;;;;;;;;5093542;28;20216;-62
2021/07/20 05:33:09;;;;;;;8.88;5.93;;;;;;;;;;5093611;28;20286;-61
2021/07/20 05:35:37;;;;;;;7.88;5.90;;;;;;;;;;5093704;28;20200;-62
2021/07/20 05:38:07;;;;;;;7.72;5.43;;;;;;;;;;5078261;28;20203;-62
2021/07/20 05:40:35;;;;;;;6.72;5.55;;;;;;;;;;5073102;28;20259;-63
2021/07/20 05:43:03;;;;;;;6.75;5.68;;;;;;;;;;5073081;28;20197;-61
2021/07/20 05:45:32;;;;;;;7.60;5.45;;;;;;;;;;5072860;28;20201;-62
2021/07/20 05:48:00;;;;;;;8.27;5.82;;;;;;;;;;5072938;28;20207;-62
2021/07/20 05:50:28;;;;;;;7.03;4.93;;;;;;;;;;5072966;28;20564;-62
2021/07/20 05:52:59;;;;;;;8.05;5.72;;;;;;;;;;5092975;28;20184;-62
2021/07/20 05:55:29;;;;;;;9.98;5.28;;;;;;;;;;5093298;28;20481;-61
2021/07/20 05:57:58;;;;;;;6.72;4.63;;;;;;;;;;5092943;28;20188;-62
2021/07/20 06:00:28;;;;;;;6.28;5.03;;;;;;;;;;5093175;28;20291;-62
2021/07/20 06:02:57;;;;;;;7.90;4.82;;;;;;;;;;5092939;28;20250;-62
2021/07/20 06:05:27;;;;;;;10.10;5.30;;;;;;;;;;5093055;28;20231;-62
2021/07/20 06:07:56;;;;;;;6.85;5.20;;;;;;;;;;5092844;28;20200;-62
2021/07/20 06:10:24;;;;;;;7.03;4.40;;;;;;;;;;5075567;28;20196;-61
2021/07/20 06:12:56;;;;;;;6.72;4.68;;;;;;;;;;5072286;28;20196;-61
2021/07/20 06:15:24;;;;;;;7.75;4.82;;;;;;;;;;5072885;28;20268;-62
2021/07/20 06:17:53;;;;;;;7.72;4.75;;;;;;;;;;5072287;28;20209;-62
2021/07/20 06:20:21;;;;;;;7.28;4.72;;;;;;;;;;5072174;28;20568;-62
2021/07/20 06:22:51;;;;;;;7.30;4.82;;;;;;;;;;5072211;28;20951;-61
2021/07/20 06:25:21;;;;;;;7.97;4.32;;;;;;;;;;5072231;28;20658;-62
2021/07/20 06:27:51;;;;;;;7.13;5.18;;;;;;;;;;5072475;28;20295;-62
2021/07/20 06:30:20;;;;;;;5.70;4.63;;;;;;;;;;5072877;28;20228;-62
2021/07/20 06:32:49;;;;;;;7.32;4.75;;;;;;;;;;5072222;28;20356;-62
2021/07/20 06:35:18;;;;;;;6.35;4.63;;;;;;;;;;5072669;28;20296;-61
2021/07/20 06:37:46;;;;;;;7.80;4.80;;;;;;;;;;5084753;28;20693;-61
2021/07/20 06:40:15;;;;;;;4.82;4.20;;;;;;;;;;5092643;28;20206;-62
2021/07/20 06:42:44;;;;;;;8.77;4.82;;;;;;;;;;5092168;28;20291;-61
2021/07/20 06:45:14;;;;;;;6.15;4.40;;;;;;;;;;5092426;28;20294;-63
2021/07/20 06:47:44;;;;;;;6.53;4.53;;;;;;;;;;5093184;28;20303;-62
2021/07/20 06:50:13;;;;;;;5.78;4.40;;;;;;;;;;5094598;28;20294;-62
2021/07/20 06:52:43;;;;;;;7.20;4.32;;;;;;;;;;5098596;28;20224;-62
2021/07/20 06:55:12;;;;;;;6.05;4.20;;;;;;;;;;5100766;28;20203;-63
2021/07/20 06:57:43;;;;;;;6.30;4.20;;;;;;;;;;5093614;28;20694;-63
2021/07/20 07:00:12;;;;;;;6.80;4.72;;;;;;;;;;5092755;28;20219;-62
2021/07/20 07:02:42;;;;;;;7.05;4.50;;;;;;;;;;5092657;28;20227;-61
2021/07/20 07:05:13;;;;;;;4.93;4.10;;;;;;;;;;5092606;28;20185;-62
2021/07/20 07:07:42;;;;;;;7.28;4.28;;;;;;;;;;5092321;28;20189;-62
2021/07/20 07:10:11;;;;;;;4.30;3.60;;;;;;;;;;5092302;28;20200;-61
2021/07/20 07:12:40;;;;;;;6.00;3.65;;;;;;;;;;5092429;28;20562;-63
2021/07/20 07:15:09;;;;;;;5.15;4.25;;;;;;;;;;5092084;28;20202;-62
2021/07/20 07:17:38;;;;;;;6.18;4.30;;;;;;;;;;5092461;28;20250;-63
2021/07/20 07:20:07;;;;;;;4.40;3.63;;;;;;;;;;5092544;28;20291;-62
2021/07/20 07:22:37;;;;;;;6.93;4.70;;;;;;;;;;5096168;28;20192;-62
2021/07/20 07:25:05;;;;;;;5.35;4.25;;;;;;;;;;5096516;28;20196;-62
2021/07/20 07:27:34;;;;;;;6.05;4.38;;;;;;;;;;5095748;28;20701;-62
2021/07/20 07:30:02;;;;;;;6.40;4.65;;;;;;;;;;5095913;28;20199;-61
2021/07/20 07:32:31;;;;;;;5.70;4.15;;;;;;;;;;5096036;28;20216;-62
2021/07/20 07:35:00;;;;;;;5.90;3.67;;;;;;;;;;5095837;28;20294;-62
2021/07/20 07:37:28;;;;;;;6.10;4.13;;;;;;;;;;5095878;28;20207;-62
2021/07/20 07:40:00;;;;;;;6.20;4.15;;;;;;;;;;5095845;28;20206;-62
2021/07/20 07:42:29;;;;;;;4.35;3.45;;;;;;;;;;5095993;28;20187;-62
2021/07/20 07:44:57;;;;;;;6.80;4.07;;;;;;;;;;5095324;28;20203;-63
2021/07/20 07:47:26;;;;;;;5.97;3.97;;;;;;;;;;5095381;28;20196;-62
2021/07/20 07:49:54;;;;;;;4.97;3.55;;;;;;;;;;5095763;28;20230;-63
2021/07/20 07:52:23;;;;;;;5.38;3.63;;;;;;;;;;5095230;28;20227;-63
2021/07/20 07:54:51;;;;;;;6.90;3.65;;;;;;;;;;5095709;28;20199;-61
2021/07/20 07:57:20;;;;;;;4.20;3.65;;;;;;;;;;5095723;28;20203;-62
2021/07/20 07:59:52;;;;;;;6.18;3.80;;;;;;;;;;5095249;28;20196;-62
2021/07/20 08:02:24;;;;;;;5.50;3.95;;;;;;;;;;5095449;28;20204;-62
2021/07/20 08:04:54;;;;;;;5.65;3.95;;;;;;;;;;5095344;28;20200;-62
2021/07/20 08:07:22;;;;;;;5.85;3.63;;;;;;;;;;5095314;28;20200;-61
2021/07/20 08:09:52;;;;;;;4.45;4.05;;;;;;;;;;5095225;28;20204;-62
2021/07/20 08:12:22;;;;;;;5.32;4.18;;;;;;;;;;5094828;28;20234;-63
2021/07/20 08:14:50;;;;;;;3.97;3.33;;;;;;;;;;5094918;28;20271;-62
2021/07/20 08:17:19;;;;;;;4.60;3.15;;;;;;;;;;5094847;28;20708;-62
2021/07/20 08:19:47;;;;;;;6.30;3.42;;;;;;;;;;5094839;28;20200;-62
2021/07/20 08:22:18;;;;;;;5.03;3.65;;;;;;;;;;5095044;28;20225;-62
2021/07/20 08:24:49;;;;;;;5.18;3.28;;;;;;;;;;5094652;28;20184;-63
2021/07/20 08:27:21;;;;;;;6.82;3.47;;;;;;;;;;5094854;28;20187;-62
2021/07/20 08:29:52;;;;;;;6.75;3.45;;;;;;;;;;5094610;28;20220;-61
2021/07/20 08:32:22;;;;;;;4.13;3.42;;;;;;;;;;5093347;28;20664;-62
2021/07/20 08:34:52;;;;;;;6.75;3.72;;;;;;;;;;5094672;28;20696;-62
2021/07/20 08:37:41;;;;;;;5.30;3.88;;;;;;;;;;5082927;28;20197;-63
2021/07/20 08:40:14;;;;;;;3.72;3.33;;;;;;;;;;5074461;28;20292;-62
2021/07/20 08:42:46;;;;;;;5.55;3.90;;;;;;;;;;5074320;28;20272;-62
2021/07/20 08:45:19;;;;;;;5.00;3.38;;;;;;;;;;5074373;28;20195;-62
2021/07/20 08:47:57;;;;;;;4.65;3.63;;;;;;;;;;5074422;28;20189;-62
2021/07/20 08:50:29;;;;;;;5.78;3.83;;;;;;;;;;5074711;28;20196;-62
2021/07/20 08:53:05;;;;;;;5.57;3.70;;;;;;;;;;5094163;28;20550;-62
2021/07/20 08:55:35;;;;;;;5.07;3.70;;;;;;;;;;5094525;28;20267;-61
2021/07/20 08:58:05;;;;;;;4.57;3.47;;;;;;;;;;5094206;28;20210;-62
2021/07/20 09:00:38;;;;;;;4.65;3.00;;;;;;;;;;5094155;28;20596;-61
2021/07/20 09:03:13;;;;;;;4.60;3.47;;;;;;;;;;5094402;28;20180;-62
2021/07/20 09:05:45;;;;;;;5.22;3.30;;;;;;;;;;5093959;28;20184;-62
2021/07/20 09:08:17;;;;;;;3.92;3.00;;;;;;;;;;5093738;28;20181;-62
2021/07/20 09:10:46;;;;;;;4.05;3.38;;;;;;;;;;5094238;28;20193;-62
2021/07/20 09:13:19;;;;;;;5.07;3.50;;;;;;;;;;5093437;28;20224;-62
2021/07/20 09:15:53;;;;;;;3.55;3.15;;;;;;;;;;5094017;28;20184;-61
2021/07/20 09:18:25;;;;;;;3.75;3.10;;;;;;;;;;5094049;28;20190;-61
2021/07/20 09:20:56;;;;;;;5.28;4.10;;;;;;;;;;5093754;28;20191;-62
2021/07/20 09:23:27;;;;;;;5.03;3.83;;;;;;;;;;5093567;28;20651;-63
2021/07/20 09:25:59;;;;;;;4.07;3.67;;;;;;;;;;5093813;28;20180;-61
2021/07/20 09:28:29;;;;;;;4.95;3.45;;;;;;;;;;5093261;28;20184;-62
2021/07/20 09:31:00;;;;;;;3.80;3.42;;;;;;;;;;5093916;28;20202;-62
2021/07/20 09:33:34;;;;;;;5.38;3.50;;;;;;;;;;5093938;28;20204;-62
2021/07/20 09:36:04;;;;;;;5.20;4.32;;;;;;;;;;5093612;28;20185;-62
2021/07/20 09:38:42;;;;;;;6.35;4.20;;;;;;;;;;5093513;28;20211;-62
2021/07/20 09:41:13;;;;;;;4.82;3.75;;;;;;;;;;5093265;28;20656;-62
2021/07/20 09:43:45;;;;;;;4.43;3.55;;;;;;;;;;5092554;28;20184;-63
2021/07/20 09:46:18;;;;;;;4.30;3.60;;;;;;;;;;5093550;28;20208;-63
2021/07/20 09:48:50;;;;;;;4.95;4.00;;;;;;;;;;5093448;28;20185;-60
2021/07/20 09:51:26;;;;;;;5.72;3.70;;;;;;;;;;5093025;28;20242;-62
2021/07/20 09:54:12;;;;;;;4.38;3.75;;;;;;;;;;5093337;28;20200;-61
2021/07/20 09:56:51;;;;;;;4.43;3.25;;;;;;;;;;5093276;28;20180;-61
2021/07/20 09:59:39;;;;;;;5.75;3.40;;;;;;;;;;5093078;28;20192;-61
2021/07/20 10:02:11;;;;;;;5.05;3.67;;;;;;;;;;5093216;28;20191;-62
2021/07/20 10:04:44;;;;;;;5.30;3.97;;;;;;;;;;5093086;28;20238;-62
2021/07/20 10:07:14;;;;;;;4.22;3.33;;;;;;;;;;5093072;28;20199;-62
2021/07/20 10:09:49;;;;;;;4.32;3.60;;;;;;;;;;5093009;28;20180;-61
2021/07/20 10:12:21;;;;;;;5.53;4.10;;;;;;;;;;5093110;28;20207;-61
2021/07/20 10:14:54;;;;;;;6.20;4.00;;;;;;;;;;5092632;28;20215;-61
2021/07/20 10:17:26;;;;;;;6.28;3.75;;;;;;;;;;5092848;28;20193;-62
2021/07/20 10:19:57;;;;;;;5.38;3.80;;;;;;;;;;5092590;28;20192;-61
2021/07/20 10:22:27;;;;;;;5.10;4.03;;;;;;;;;;5092946;28;20211;-62
2021/07/20 10:24:58;;;;;;;5.03;3.72;;;;;;;;;;5093018;28;20204;-62
2021/07/20 10:27:30;;;;;;;5.65;4.00;;;;;;;;;;5092619;28;20184;-62
2021/07/20 10:30:02;;;;;;;4.18;3.50;;;;;;;;;;5092387;28;20668;-61
2021/07/20 10:32:34;;;;;;;4.93;3.83;;;;;;;;;;5092449;28;20777;-62
2021/07/20 10:35:04;;;;;;;5.03;3.88;;;;;;;;;;5092436;28;20211;-62
2021/07/20 10:37:37;;;;;;;5.68;4.13;;;;;;;;;;5082066;28;20208;-62
2021/07/20 10:40:06;;;;;;;6.30;3.42;;;;;;;;;;5072364;28;20192;-62
2021/07/20 10:42:38;;;;;;;4.97;3.83;;;;;;;;;;5072272;28;20223;-62
2021/07/20 10:45:08;;;;;;;3.72;3.40;;;;;;;;;;5072577;28;20185;-62
2021/07/20 10:47:40;;;;;;;7.15;3.60;;;;;;;;;;5072270;28;20201;-62
2021/07/20 10:50:10;;;;;;;5.40;3.85;;;;;;;;;;5072290;28;20192;-63
2021/07/20 10:52:47;;;;;;;4.63;3.55;;;;;;;;;;5091007;28;20274;-62
2021/07/20 10:55:19;;;;;;;4.95;3.50;;;;;;;;;;5093149;28;20208;-62
2021/07/20 10:57:51;;;;;;;4.18;3.60;;;;;;;;;;5096769;28;20184;-62
2021/07/20 11:00:19;;;;;;;6.63;3.90;;;;;;;;;;5096544;28;20184;-62
2021/07/20 11:02:53;;;;;;;4.10;3.70;;;;;;;;;;5096631;28;20195;-62
2021/07/20 11:05:22;;;;;;;4.45;3.58;;;;;;;;;;5096584;28;20184;-64
2021/07/20 11:07:51;;;;;;;6.43;3.90;;;;;;;;;;5096130;28;20592;-62
2021/07/20 11:10:21;;;;;;;4.75;4.00;;;;;;;;;;5096520;28;20208;-62
2021/07/20 11:12:54;;;;;;;5.38;3.70;;;;;;;;;;5096473;28;20222;-62
2021/07/20 11:15:22;;;;;;;5.40;3.90;;;;;;;;;;5096101;28;20209;-62
2021/07/20 11:17:52;;;;;;;3.58;3.28;;;;;;;;;;5096317;28;20203;-63
2021/07/20 11:20:31;;;;;;;6.70;4.00;;;;;;;;;;5096352;28;20191;-61
2021/07/20 11:23:00;;;;;;;4.03;3.63;;;;;;;;;;5096009;28;20557;-61
2021/07/20 11:25:28;;;;;;;5.65;3.97;;;;;;;;;;5096466;28;20196;-61
2021/07/20 11:27:58;;;;;;;5.65;3.80;;;;;;;;;;5096244;28;20209;-61
2021/07/20 11:30:30;;;;;;;5.47;3.90;;;;;;;;;;5095688;28;20204;-62
2021/07/20 11:33:02;;;;;;;5.47;3.38;;;;;;;;;;5096197;28;20180;-62
2021/07/20 11:35:32;;;;;;;5.40;3.85;;;;;;;;;;5095639;28;20204;-62
2021/07/20 11:38:05;;;;;;;5.53;3.80;;;;;;;;;;5095874;28;20228;-62
2021/07/20 11:40:37;;;;;;;6.82;3.80;;;;;;;;;;5095998;28;20185;-61
2021/07/20 11:43:07;;;;;;;7.10;3.85;;;;;;;;;;5095763;28;20180;-61
2021/07/20 11:45:39;;;;;;;5.43;3.65;;;;;;;;;;5095749;28;20196;-61
2021/07/20 11:48:12;;;;;;;6.40;3.78;;;;;;;;;;5095639;28;20187;-61
2021/07/20 11:50:42;;;;;;;4.47;4.00;;;;;;;;;;5095456;28;20505;-61
2021/07/20 11:53:15;;;;;;;4.70;4.15;;;;;;;;;;5100081;28;20189;-62
2021/07/20 11:55:46;;;;;;;5.53;3.38;;;;;;;;;;5101528;28;20201;-62
2021/07/20 11:58:46;;;;;;;8.90;3.70;;;;;;;;;;5100811;28;20184;-61
2021/07/20 12:01:39;;;;;;;6.15;3.88;;;;;;;;;;5095567;28;20191;-62
2021/07/20 12:04:21;;;;;;;4.32;3.45;;;;;;;;;;5095377;28;20663;-62
2021/07/20 12:07:02;;;;;;;4.20;3.75;;;;;;;;;;5095236;28;20180;-61
2021/07/20 12:09:38;;;;;;;8.02;3.67;;;;;;;;;;5095536;28;20196;-61
2021/07/20 12:12:38;;;;;;;4.80;3.47;;;;;;;;;;5095269;28;20200;-63
2021/07/20 12:15:06;;;;;;;4.03;3.17;;;;;;;;;;5094884;28;20204;-61
2021/07/20 12:17:35;;;;;;;5.03;3.08;;;;;;;;;;5094908;28;20204;-61
2021/07/20 12:20:04;;;;;;;4.00;3.20;;;;;;;;;;5095189;28;20230;-62
2021/07/20 12:22:32;;;;;;;6.05;3.35;;;;;;;;;;5094819;28;20212;-62
2021/07/20 12:25:04;;;;;;;5.50;3.35;;;;;;;;;;5095071;28;20206;-60
2021/07/20 12:27:33;;;;;;;5.45;3.60;;;;;;;;;;5094722;28;20207;-61
2021/07/20 12:30:01;;;;;;;4.18;3.70;;;;;;;;;;5094596;28;20667;-63
2021/07/20 12:32:34;;;;;;;8.02;3.78;;;;;;;;;;5094614;28;20632;-61
2021/07/20 12:35:03;;;;;;;4.57;3.80;;;;;;;;;;5094710;28;20230;-63
2021/07/20 12:37:32;;;;;;;5.30;3.63;;;;;;;;;;5084254;28;20208;-61
2021/07/20 12:40:01;;;;;;;4.20;3.13;;;;;;;;;;5074363;28;20656;-61
2021/07/20 12:42:33;;;;;;;5.05;3.53;;;;;;;;;;5074526;28;20216;-62
2021/07/20 12:45:02;;;;;;;4.05;3.40;;;;;;;;;;5074517;28;20189;-61
2021/07/20 12:47:37;;;;;;;4.88;3.47;;;;;;;;;;5074434;28;20208;-62
2021/07/20 12:50:06;;;;;;;5.10;3.50;;;;;;;;;;5074275;28;20202;-62
2021/07/20 12:52:36;;;;;;;5.60;3.60;;;;;;;;;;5092230;28;20683;-63
2021/07/20 12:55:08;;;;;;;5.53;3.75;;;;;;;;;;5094352;28;20216;-61
2021/07/20 12:57:37;;;;;;;4.43;3.80;;;;;;;;;;5093732;28;20200;-61
2021/07/20 13:00:26;;;;;;;4.57;3.13;;;;;;;;;;5094065;28;20204;-62
2021/07/20 13:02:55;;;;;;;4.70;3.10;;;;;;;;;;5094080;28;20675;-62
2021/07/20 13:05:25;;;;;;;4.00;3.22;;;;;;;;;;5093975;28;20214;-62
2021/07/20 13:07:57;;;;;;;5.57;3.40;;;;;;;;;;5094467;28;20200;-62
2021/07/20 13:10:25;;;;;;;3.60;3.30;;;;;;;;;;5094249;28;20194;-62
2021/07/20 13:12:55;;;;;;;3.97;3.42;;;;;;;;;;5093979;28;20203;-62
2021/07/20 13:15:25;;;;;;;6.10;3.42;;;;;;;;;;5093627;28;20711;-61
2021/07/20 13:17:54;;;;;;;4.22;3.03;;;;;;;;;;5093143;28;20543;-62
2021/07/20 13:20:23;;;;;;;3.72;3.10;;;;;;;;;;5093724;28;20766;-62
2021/07/20 13:22:52;;;;;;;4.03;3.00;;;;;;;;;;5093605;28;20200;-62
2021/07/20 13:25:22;;;;;;;3.53;2.85;;;;;;;;;;5093896;28;20200;-63
2021/07/20 13:27:50;;;;;;;3.53;2.95;;;;;;;;;;5093608;28;20192;-62
2021/07/20 13:30:19;;;;;;;4.75;2.90;;;;;;;;;;5093932;28;20202;-60
2021/07/20 13:32:48;;;;;;;2.97;2.63;;;;;;;;;;5093706;28;20200;-61
2021/07/20 13:35:17;;;;;;;3.40;2.83;;;;;;;;;;5093683;28;20224;-62
2021/07/20 13:37:46;;;;;;;6.95;3.05;;;;;;;;;;5093519;28;20196;-63
2021/07/20 13:40:15;;;;;;;3.42;2.70;;;;;;;;;;5093283;28;20200;-61
2021/07/20 13:42:45;;;;;;;3.20;2.40;;;;;;;;;;5093036;28;20682;-61
2021/07/20 13:45:14;;;;;;;3.53;2.33;;;;;;;;;;5093388;28;20181;-62
2021/07/20 13:47:43;;;;;;;3.88;2.50;;;;;;;;;;5093522;28;20199;-62
2021/07/20 13:50:12;;;;;;;4.65;2.65;;;;;;;;;;5093350;28;20196;-62
2021/07/20 13:52:40;;;;;;;3.30;2.60;;;;;;;;;;5093030;28;20240;-62
2021/07/20 13:55:10;;;;;;;4.97;2.60;;;;;;;;;;5093241;28;20587;-62
2021/07/20 13:57:38;;;;;;;5.10;2.50;;;;;;;;;;5092795;28;20200;-62
2021/07/20 14:00:09;;;;;;;4.25;2.80;;;;;;;;;;5093503;28;20204;-61
2021/07/20 14:02:39;;;;;;;5.13;2.45;;;;;;;;;;5093238;28;20184;-62
2021/07/20 14:05:08;;;;;;;2.90;2.40;;;;;;;;;;5093235;28;20191;-63
2021/07/20 14:07:36;;;;;;;2.40;2.20;;;;;;;;;;5093122;28;20652;-63
2021/07/20 14:10:05;;;;;;;3.80;2.60;;;;;;;;;;5092996;28;20230;-62
2021/07/20 14:12:33;;;;;;;2.97;2.58;;;;;;;;;;5092813;28;20295;-63
2021/07/20 14:15:02;;;;;;;2.72;2.22;;;;;;;;;;5092769;28;20196;-62
2021/07/20 14:17:32;;;;;;;3.58;2.67;;;;;;;;;;5092943;28;20207;-62
2021/07/20 14:20:00;;;;;;;3.63;3.33;;;;;;;;;;5093076;28;20227;-62
2021/07/20 14:22:28;;;;;;;2.92;2.53;;;;;;;;;;5092740;28;20204;-62
2021/07/20 14:24:57;;;;;;;3.50;2.53;;;;;;;;;;5092598;28;20687;-62
2021/07/20 14:27:26;;;;;;;2.90;2.60;;;;;;;;;;5092721;28;20211;-61
2021/07/20 14:29:55;;;;;;;5.55;2.92;;;;;;;;;;5092267;28;20200;-61
2021/07/20 14:32:24;;;;;;;3.30;2.60;;;;;;;;;;5092730;28;20207;-61
2021/07/20 14:34:54;;;;;;;3.58;3.00;;;;;;;;;;5092564;28;20662;-62
2021/07/20 14:37:42;;;;;;;3.45;2.90;;;;;;;;;;5083491;28;20204;-62
2021/07/20 14:40:12;;;;;;;3.55;2.50;;;;;;;;;;5072276;28;20195;-62
2021/07/20 14:42:41;;;;;;;4.00;2.28;;;;;;;;;;5072313;28;20200;-62
2021/07/20 14:45:11;;;;;;;3.90;2.40;;;;;;;;;;5071979;28;20207;-61
2021/07/20 14:47:58;;;;;;;4.63;2.92;;;;;;;;;;5072571;28;20196;-61
2021/07/20 14:50:50;;;;;;;4.13;2.30;;;;;;;;;;5075044;28;20694;-61
2021/07/20 14:53:23;;;;;;;3.75;2.20;;;;;;;;;;5092232;28;20628;-62
2021/07/20 14:55:51;;;;;;;4.13;2.53;;;;;;;;;;5092553;28;20554;-60
2021/07/20 14:58:21;;;;;;;3.55;2.55;;;;;;;;;;5092225;28;20203;-62
2021/07/20 15:00:59;;;;;;;3.53;2.50;;;;;;;;;;5092442;28;20216;-63
2021/07/20 15:03:29;;;;;;;4.57;2.15;;;;;;;;;;5092203;28;20242;-62
2021/07/20 15:05:59;;;;;;;4.45;2.45;;;;;;;;;;5092310;28;20200;-61